sensor_id;sensor_type;location;lat;lon;timestamp;pressure;altitude;pressure_sealevel;temperature;humidity
42887;BME280;29032;56.028;92.904;2023-04-30T00:04:18;98584.47;;;6.48;31.92
42887;BME280;29032;56.028;92.904;2023-04-30T00:09:39;98576.59;;;6.58;32.13
42887;BME280;29032;56.028;92.904;2023-04-30T00:14:41;98582.13;;;6.58;31.77
42887;BME280;29032;56.028;92.904;2023-04-30T00:19:44;98569.97;;;6.72;31.46
42887;BME280;29032;56.028;92.904;2023-04-30T00:24:46;98565.09;;;6.54;31.80
42887;BME280;29032;56.028;92.904;2023-04-30T00:29:48;98559.34;;;6.52;31.72
42887;BME280;29032;56.028;92.904;2023-04-30T00:34:52;98567.19;;;6.48;32.48
42887;BME280;29032;56.028;92.904;2023-04-30T00:39:54;98556.91;;;6.48;32.49
42887;BME280;29032;56.028;92.904;2023-04-30T00:44:56;98552.56;;;6.53;32.05
42887;BME280;29032;56.028;92.904;2023-04-30T00:50:00;98553.28;;;6.59;31.68
42887;BME280;29032;56.028;92.904;2023-04-30T00:55:21;98553.94;;;6.70;31.93
42887;BME280;29032;56.028;92.904;2023-04-30T01:00:24;98555.38;;;6.77;31.51
42887;BME280;29032;56.028;92.904;2023-04-30T01:05:27;98556.66;;;6.76;31.58
42887;BME280;29032;56.028;92.904;2023-04-30T01:10:37;98549.88;;;6.77;31.19
42887;BME280;29032;56.028;92.904;2023-04-30T01:15:44;98558.00;;;6.64;31.41
42887;BME280;29032;56.028;92.904;2023-04-30T01:21:05;98550.56;;;6.53;31.54
42887;BME280;29032;56.028;92.904;2023-04-30T01:26:13;98542.06;;;6.51;31.71
42887;BME280;29032;56.028;92.904;2023-04-30T01:31:36;98544.44;;;6.66;31.44
42887;BME280;29032;56.028;92.904;2023-04-30T01:37:10;98538.66;;;6.69;31.01
42887;BME280;29032;56.028;92.904;2023-04-30T01:42:20;98525.84;;;6.72;30.84
42887;BME280;29032;56.028;92.904;2023-04-30T01:47:30;98534.91;;;6.67;30.88
42887;BME280;29032;56.028;92.904;2023-04-30T01:52:40;98526.31;;;6.76;31.42
42887;BME280;29032;56.028;92.904;2023-04-30T01:57:48;98525.28;;;6.79;30.71
42887;BME280;29032;56.028;92.904;2023-04-30T02:02:54;98525.50;;;6.81;31.26
42887;BME280;29032;56.028;92.904;2023-04-30T02:08:14;98511.72;;;6.81;30.07
42887;BME280;29032;56.028;92.904;2023-04-30T02:13:16;98518.75;;;6.82;29.11
42887;BME280;29032;56.028;92.904;2023-04-30T02:18:38;98512.06;;;6.96;29.57
42887;BME280;29032;56.028;92.904;2023-04-30T02:23:40;98516.75;;;7.02;28.96
42887;BME280;29032;56.028;92.904;2023-04-30T02:29:01;98513.78;;;6.99;29.05
42887;BME280;29032;56.028;92.904;2023-04-30T02:34:05;98503.69;;;6.83;28.76
42887;BME280;29032;56.028;92.904;2023-04-30T02:39:07;98514.06;;;6.96;28.23
42887;BME280;29032;56.028;92.904;2023-04-30T02:44:09;98525.13;;;7.15;28.09
42887;BME280;29032;56.028;92.904;2023-04-30T02:49:30;98520.22;;;6.83;28.20
42887;BME280;29032;56.028;92.904;2023-04-30T02:54:32;98514.34;;;6.92;28.60
42887;BME280;29032;56.028;92.904;2023-04-30T02:59:34;98509.16;;;7.08;28.12
42887;BME280;29032;56.028;92.904;2023-04-30T03:04:56;98504.22;;;7.25;28.77
42887;BME280;29032;56.028;92.904;2023-04-30T03:15:19;98505.97;;;7.22;27.92
42887;BME280;29032;56.028;92.904;2023-04-30T03:25:43;98504.88;;;7.31;28.57
42887;BME280;29032;56.028;92.904;2023-04-30T03:31:03;98507.69;;;7.50;28.20
42887;BME280;29032;56.028;92.904;2023-04-30T03:41:27;98505.13;;;7.33;28.01
42887;BME280;29032;56.028;92.904;2023-04-30T03:46:29;98513.34;;;7.39;27.98
42887;BME280;29032;56.028;92.904;2023-04-30T03:57:12;98503.94;;;7.47;28.17
42887;BME280;29032;56.028;92.904;2023-04-30T04:02:14;98497.97;;;7.43;28.22
42887;BME280;29032;56.028;92.904;2023-04-30T04:07:18;98492.75;;;7.59;27.59
42887;BME280;29032;56.028;92.904;2023-04-30T04:17:41;98480.06;;;7.69;27.54
42887;BME280;29032;56.028;92.904;2023-04-30T04:22:45;98473.47;;;7.91;27.43
42887;BME280;29032;56.028;92.904;2023-04-30T04:27:47;98473.28;;;8.02;27.70
42887;BME280;29032;56.028;92.904;2023-04-30T04:32:49;98484.03;;;8.05;26.72
42887;BME280;29032;56.028;92.904;2023-04-30T04:37:53;98473.28;;;8.02;26.86
42887;BME280;29032;56.028;92.904;2023-04-30T04:43:13;98458.72;;;8.01;27.52
42887;BME280;29032;56.028;92.904;2023-04-30T04:48:52;98466.63;;;8.11;27.83
42887;BME280;29032;56.028;92.904;2023-04-30T04:53:56;98464.47;;;8.03;27.33
42887;BME280;29032;56.028;92.904;2023-04-30T04:58:58;98470.44;;;8.07;25.90
42887;BME280;29032;56.028;92.904;2023-04-30T05:04:00;98473.44;;;8.10;26.80
42887;BME280;29032;56.028;92.904;2023-04-30T05:09:04;98476.81;;;8.16;26.69
42887;BME280;29032;56.028;92.904;2023-04-30T05:14:06;98459.38;;;8.07;25.81
42887;BME280;29032;56.028;92.904;2023-04-30T05:19:08;98464.44;;;7.90;27.22
42887;BME280;29032;56.028;92.904;2023-04-30T05:24:12;98458.34;;;8.11;26.77
42887;BME280;29032;56.028;92.904;2023-04-30T05:29:32;98468.50;;;8.48;27.27
42887;BME280;29032;56.028;92.904;2023-04-30T05:34:34;98457.03;;;8.70;25.46
42887;BME280;29032;56.028;92.904;2023-04-30T05:39:56;98456.69;;;9.00;25.78
42887;BME280;29032;56.028;92.904;2023-04-30T05:44:58;98478.63;;;9.25;25.69
42887;BME280;29032;56.028;92.904;2023-04-30T05:50:18;98454.38;;;8.91;26.01
42887;BME280;29032;56.028;92.904;2023-04-30T05:55:22;98462.34;;;9.08;25.58
42887;BME280;29032;56.028;92.904;2023-04-30T06:05:44;98452.31;;;9.31;26.00
42887;BME280;29032;56.028;92.904;2023-04-30T06:10:48;98452.78;;;9.56;25.20
42887;BME280;29032;56.028;92.904;2023-04-30T06:15:51;98463.97;;;9.85;25.58
42887;BME280;29032;56.028;92.904;2023-04-30T06:20:53;98451.00;;;10.00;25.29
42887;BME280;29032;56.028;92.904;2023-04-30T06:31:16;98459.00;;;9.70;24.46
42887;BME280;29032;56.028;92.904;2023-04-30T06:36:19;98474.94;;;9.56;24.81
42887;BME280;29032;56.028;92.904;2023-04-30T06:41:22;98462.44;;;9.29;26.22
42887;BME280;29032;56.028;92.904;2023-04-30T06:46:42;98459.34;;;9.66;25.86
42887;BME280;29032;56.028;92.904;2023-04-30T06:57:06;98461.34;;;10.70;25.51
42887;BME280;29032;56.028;92.904;2023-04-30T07:07:47;98475.97;;;10.71;24.17
42887;BME280;29032;56.028;92.904;2023-04-30T07:12:50;98474.66;;;10.22;24.71
42887;BME280;29032;56.028;92.904;2023-04-30T07:17:53;98483.84;;;10.17;25.29
42887;BME280;29032;56.028;92.904;2023-04-30T07:28:16;98498.09;;;9.80;25.66
42887;BME280;29032;56.028;92.904;2023-04-30T07:38:38;98483.72;;;10.02;25.61
42887;BME280;29032;56.028;92.904;2023-04-30T07:43:42;98483.34;;;10.47;25.07
42887;BME280;29032;56.028;92.904;2023-04-30T07:48:44;98494.63;;;10.70;25.08
42887;BME280;29032;56.028;92.904;2023-04-30T07:53:46;98498.25;;;10.58;24.54
42887;BME280;29032;56.028;92.904;2023-04-30T07:59:08;98492.53;;;10.35;25.27
42887;BME280;29032;56.028;92.904;2023-04-30T08:04:10;98493.59;;;10.32;25.37
42887;BME280;29032;56.028;92.904;2023-04-30T08:09:30;98490.00;;;10.44;24.88
42887;BME280;29032;56.028;92.904;2023-04-30T08:19:54;98498.25;;;10.37;25.14
42887;BME280;29032;56.028;92.904;2023-04-30T08:30:18;98504.34;;;10.35;25.85
42887;BME280;29032;56.028;92.904;2023-04-30T08:40:40;98508.56;;;10.28;25.43
42887;BME280;29032;56.028;92.904;2023-04-30T08:45:44;98494.88;;;10.10;26.29
42887;BME280;29032;56.028;92.904;2023-04-30T08:51:04;98502.59;;;10.24;26.09
42887;BME280;29032;56.028;92.904;2023-04-30T08:56:25;98509.97;;;10.01;25.80
42887;BME280;29032;56.028;92.904;2023-04-30T09:01:46;98510.50;;;10.20;26.93
42887;BME280;29032;56.028;92.904;2023-04-30T09:06:51;98510.97;;;10.11;26.42
42887;BME280;29032;56.028;92.904;2023-04-30T09:12:10;98529.78;;;9.92;26.54
42887;BME280;29032;56.028;92.904;2023-04-30T09:17:32;98524.75;;;9.69;26.88
42887;BME280;29032;56.028;92.904;2023-04-30T09:22:35;98516.28;;;9.41;27.29
42887;BME280;29032;56.028;92.904;2023-04-30T09:27:37;98514.72;;;9.32;28.39
42887;BME280;29032;56.028;92.904;2023-04-30T09:32:59;98512.63;;;9.72;27.71
42887;BME280;29032;56.028;92.904;2023-04-30T09:38:02;98528.94;;;9.50;28.33
42887;BME280;29032;56.028;92.904;2023-04-30T09:48:26;98546.25;;;9.77;28.57
42887;BME280;29032;56.028;92.904;2023-04-30T09:53:29;98534.81;;;9.93;28.36
42887;BME280;29032;56.028;92.904;2023-04-30T09:58:35;98539.56;;;10.27;27.96
42887;BME280;29032;56.028;92.904;2023-04-30T10:03:41;98551.50;;;10.35;27.82
42887;BME280;29032;56.028;92.904;2023-04-30T10:14:09;98555.81;;;10.44;28.60
42887;BME280;29032;56.028;92.904;2023-04-30T10:19:18;98571.03;;;10.92;27.43
42887;BME280;29032;56.028;92.904;2023-04-30T10:24:39;98570.75;;;11.03;27.56
42887;BME280;29032;56.028;92.904;2023-04-30T10:30:00;98572.06;;;10.81;27.74
42887;BME280;29032;56.028;92.904;2023-04-30T10:40:46;98589.50;;;10.90;27.96
42887;BME280;29032;56.028;92.904;2023-04-30T10:51:09;98576.47;;;10.01;28.75
42887;BME280;29032;56.028;92.904;2023-04-30T10:56:32;98580.53;;;10.00;30.67
42887;BME280;29032;56.028;92.904;2023-04-30T11:01:53;98597.47;;;9.96;29.71
42887;BME280;29032;56.028;92.904;2023-04-30T11:07:01;98597.44;;;9.62;29.46
42887;BME280;29032;56.028;92.904;2023-04-30T11:17:33;98592.53;;;9.55;29.51
42887;BME280;29032;56.028;92.904;2023-04-30T11:22:35;98612.47;;;9.40;29.54
42887;BME280;29032;56.028;92.904;2023-04-30T11:27:42;98606.78;;;9.19;29.74
42887;BME280;29032;56.028;92.904;2023-04-30T11:33:03;98613.16;;;9.14;29.33
42887;BME280;29032;56.028;92.904;2023-04-30T11:38:06;98617.56;;;8.78;29.73
42887;BME280;29032;56.028;92.904;2023-04-30T11:43:22;98608.06;;;8.60;29.68
42887;BME280;29032;56.028;92.904;2023-04-30T11:48:24;98611.75;;;8.49;29.76
42887;BME280;29032;56.028;92.904;2023-04-30T11:53:31;98621.09;;;8.46;30.18
42887;BME280;29032;56.028;92.904;2023-04-30T11:58:35;98632.44;;;8.43;30.47
42887;BME280;29032;56.028;92.904;2023-04-30T12:03:41;98637.41;;;8.31;30.41
42887;BME280;29032;56.028;92.904;2023-04-30T12:08:43;98627.25;;;8.01;31.35
42887;BME280;29032;56.028;92.904;2023-04-30T12:19:29;98632.19;;;8.08;30.84
42887;BME280;29032;56.028;92.904;2023-04-30T12:24:50;98640.31;;;8.01;31.28
42887;BME280;29032;56.028;92.904;2023-04-30T12:29:53;98626.66;;;8.08;31.01
42887;BME280;29032;56.028;92.904;2023-04-30T12:35:15;98630.19;;;7.90;31.36
42887;BME280;29032;56.028;92.904;2023-04-30T12:40:19;98636.50;;;7.85;32.42
42887;BME280;29032;56.028;92.904;2023-04-30T12:45:48;98627.94;;;7.89;31.76
42887;BME280;29032;56.028;92.904;2023-04-30T12:50:52;98626.78;;;7.78;32.37
42887;BME280;29032;56.028;92.904;2023-04-30T12:56:15;98631.44;;;8.08;31.43
42887;BME280;29032;56.028;92.904;2023-04-30T13:01:20;98630.69;;;7.70;32.40
42887;BME280;29032;56.028;92.904;2023-04-30T13:06:23;98641.78;;;7.64;33.31
42887;BME280;29032;56.028;92.904;2023-04-30T13:11:25;98659.19;;;7.78;36.82
42887;BME280;29032;56.028;92.904;2023-04-30T13:16:29;98653.78;;;7.67;33.29
42887;BME280;29032;56.028;92.904;2023-04-30T13:22:08;98659.09;;;7.65;32.86
42887;BME280;29032;56.028;92.904;2023-04-30T13:27:28;98660.66;;;7.60;32.96
42887;BME280;29032;56.028;92.904;2023-04-30T13:32:32;98673.38;;;7.44;33.39
42887;BME280;29032;56.028;92.904;2023-04-30T13:37:34;98673.75;;;7.30;34.03
42887;BME280;29032;56.028;92.904;2023-04-30T13:42:37;98680.22;;;7.08;34.41
42887;BME280;29032;56.028;92.904;2023-04-30T13:47:40;98684.00;;;7.05;34.45
42887;BME280;29032;56.028;92.904;2023-04-30T13:52:42;98687.63;;;6.88;34.80
42887;BME280;29032;56.028;92.904;2023-04-30T13:57:44;98686.69;;;6.80;34.83
42887;BME280;29032;56.028;92.904;2023-04-30T14:03:06;98693.25;;;6.77;35.09
42887;BME280;29032;56.028;92.904;2023-04-30T14:08:08;98685.22;;;6.79;35.17
42887;BME280;29032;56.028;92.904;2023-04-30T14:13:10;98686.97;;;6.82;35.23
42887;BME280;29032;56.028;92.904;2023-04-30T14:18:14;98694.38;;;6.93;35.11
42887;BME280;29032;56.028;92.904;2023-04-30T14:23:16;98701.81;;;6.68;35.85
42887;BME280;29032;56.028;92.904;2023-04-30T14:28:18;98692.78;;;6.73;35.70
42887;BME280;29032;56.028;92.904;2023-04-30T14:33:21;98699.16;;;6.92;35.33
42887;BME280;29032;56.028;92.904;2023-04-30T14:38:23;98707.78;;;6.78;36.20
42887;BME280;29032;56.028;92.904;2023-04-30T14:43:25;98719.78;;;6.80;36.29
42887;BME280;29032;56.028;92.904;2023-04-30T14:48:47;98720.19;;;6.60;36.14
42887;BME280;29032;56.028;92.904;2023-04-30T14:53:49;98716.25;;;6.44;36.58
42887;BME280;29032;56.028;92.904;2023-04-30T14:58:51;98719.13;;;6.27;37.21
42887;BME280;29032;56.028;92.904;2023-04-30T15:03:55;98706.09;;;6.28;37.15
42887;BME280;29032;56.028;92.904;2023-04-30T15:09:03;98723.75;;;6.49;41.52
42887;BME280;29032;56.028;92.904;2023-04-30T15:14:05;98726.63;;;6.68;37.46
42887;BME280;29032;56.028;92.904;2023-04-30T15:19:09;98718.31;;;6.79;36.86
42887;BME280;29032;56.028;92.904;2023-04-30T15:24:11;98716.97;;;6.91;36.46
42887;BME280;29032;56.028;92.904;2023-04-30T15:29:13;98732.94;;;7.04;35.89
42887;BME280;29032;56.028;92.904;2023-04-30T15:34:17;98733.00;;;6.93;36.33
42887;BME280;29032;56.028;92.904;2023-04-30T15:39:19;98735.34;;;6.83;36.90
42887;BME280;29032;56.028;92.904;2023-04-30T15:44:39;98737.06;;;6.86;36.07
42887;BME280;29032;56.028;92.904;2023-04-30T15:49:43;98735.50;;;6.96;37.14
42887;BME280;29032;56.028;92.904;2023-04-30T15:54:45;98730.63;;;7.08;36.20
42887;BME280;29032;56.028;92.904;2023-04-30T16:00:06;98741.66;;;7.08;35.85
42887;BME280;29032;56.028;92.904;2023-04-30T16:05:15;98749.50;;;6.63;36.51
42887;BME280;29032;56.028;92.904;2023-04-30T16:10:17;98739.81;;;6.45;36.72
42887;BME280;29032;56.028;92.904;2023-04-30T16:15:38;98747.06;;;6.48;37.35
42887;BME280;29032;56.028;92.904;2023-04-30T16:20:42;98743.06;;;6.43;35.95
42887;BME280;29032;56.028;92.904;2023-04-30T16:25:46;98749.47;;;6.16;36.57
42887;BME280;29032;56.028;92.904;2023-04-30T16:30:48;98742.81;;;5.83;37.48
42887;BME280;29032;56.028;92.904;2023-04-30T16:36:10;98737.03;;;5.98;36.97
42887;BME280;29032;56.028;92.904;2023-04-30T16:41:13;98739.50;;;5.96;36.83
42887;BME280;29032;56.028;92.904;2023-04-30T16:46:15;98743.81;;;5.92;37.43
42887;BME280;29032;56.028;92.904;2023-04-30T16:51:37;98739.56;;;5.85;37.47
42887;BME280;29032;56.028;92.904;2023-04-30T16:56:39;98742.84;;;5.61;37.99
42887;BME280;29032;56.028;92.904;2023-04-30T17:01:41;98737.38;;;5.44;38.08
42887;BME280;29032;56.028;92.904;2023-04-30T17:06:45;98748.88;;;5.48;38.28
42887;BME280;29032;56.028;92.904;2023-04-30T17:11:47;98734.38;;;5.48;38.37
42887;BME280;29032;56.028;92.904;2023-04-30T17:16:49;98750.59;;;5.68;38.37
42887;BME280;29032;56.028;92.904;2023-04-30T17:21:53;98749.09;;;5.67;38.46
42887;BME280;29032;56.028;92.904;2023-04-30T17:26:55;98742.38;;;5.57;38.63
42887;BME280;29032;56.028;92.904;2023-04-30T17:31:57;98735.84;;;5.60;38.34
42887;BME280;29032;56.028;92.904;2023-04-30T17:37:00;98738.34;;;5.69;38.43
42887;BME280;29032;56.028;92.904;2023-04-30T17:42:20;98723.84;;;5.63;37.99
42887;BME280;29032;56.028;92.904;2023-04-30T17:47:22;98739.34;;;5.66;38.54
42887;BME280;29032;56.028;92.904;2023-04-30T17:52:26;98737.34;;;5.61;38.51
42887;BME280;29032;56.028;92.904;2023-04-30T17:57:28;98727.13;;;5.39;39.22
42887;BME280;29032;56.028;92.904;2023-04-30T18:02:31;98727.13;;;5.45;39.36
42887;BME280;29032;56.028;92.904;2023-04-30T18:07:34;98728.88;;;5.48;39.94
42887;BME280;29032;56.028;92.904;2023-04-30T18:12:36;98724.88;;;5.49;39.40
42887;BME280;29032;56.028;92.904;2023-04-30T18:17:38;98722.63;;;5.47;39.34
42887;BME280;29032;56.028;92.904;2023-04-30T18:22:42;98723.91;;;5.29;40.01
42887;BME280;29032;56.028;92.904;2023-04-30T18:28:03;98732.41;;;5.20;40.90
42887;BME280;29032;56.028;92.904;2023-04-30T18:33:23;98728.16;;;5.14;40.89
42887;BME280;29032;56.028;92.904;2023-04-30T18:38:27;98726.66;;;5.01;41.02
42887;BME280;29032;56.028;92.904;2023-04-30T18:43:29;98714.41;;;4.97;41.54
42887;BME280;29032;56.028;92.904;2023-04-30T18:48:31;98716.16;;;5.28;40.89
42887;BME280;29032;56.028;92.904;2023-04-30T18:53:35;98721.63;;;5.45;40.66
42887;BME280;29032;56.028;92.904;2023-04-30T18:58:55;98712.88;;;5.41;41.06
42887;BME280;29032;56.028;92.904;2023-04-30T19:04:16;98721.84;;;5.58;39.95
42887;BME280;29032;56.028;92.904;2023-04-30T19:09:19;98724.16;;;5.26;41.85
42887;BME280;29032;56.028;92.904;2023-04-30T19:14:21;98721.91;;;5.13;42.44
42887;BME280;29032;56.028;92.904;2023-04-30T19:19:23;98711.91;;;4.99;42.75
42887;BME280;29032;56.028;92.904;2023-04-30T19:35:08;98718.16;;;4.99;43.66
42887;BME280;29032;56.028;92.904;2023-04-30T19:40:12;98711.66;;;5.02;43.83
42887;BME280;29032;56.028;92.904;2023-04-30T19:45:14;98711.38;;;4.72;44.78
42887;BME280;29032;56.028;92.904;2023-04-30T19:50:17;98714.34;;;4.63;48.81
42887;BME280;29032;56.028;92.904;2023-04-30T19:55:20;98704.38;;;4.66;45.39
42887;BME280;29032;56.028;92.904;2023-04-30T20:00:22;98706.09;;;4.69;45.97
42887;BME280;29032;56.028;92.904;2023-04-30T20:11:05;98720.63;;;4.75;46.54
42887;BME280;29032;56.028;92.904;2023-04-30T20:16:07;98718.53;;;4.42;48.19
42887;BME280;29032;56.028;92.904;2023-04-30T20:21:09;98715.03;;;4.41;48.35
42887;BME280;29032;56.028;92.904;2023-04-30T20:26:13;98706.59;;;4.50;48.00
42887;BME280;29032;56.028;92.904;2023-04-30T20:31:15;98710.59;;;4.61;47.95
42887;BME280;29032;56.028;92.904;2023-04-30T20:36:17;98709.34;;;4.56;48.40
42887;BME280;29032;56.028;92.904;2023-04-30T20:41:20;98705.28;;;4.35;49.27
42887;BME280;29032;56.028;92.904;2023-04-30T20:46:40;98711.19;;;4.05;49.40
42887;BME280;29032;56.028;92.904;2023-04-30T20:51:42;98699.72;;;4.01;50.06
42887;BME280;29032;56.028;92.904;2023-04-30T20:57:04;98701.59;;;4.43;48.54
42887;BME280;29032;56.028;92.904;2023-04-30T21:02:07;98702.72;;;4.14;49.80
42887;BME280;29032;56.028;92.904;2023-04-30T21:07:09;98699.47;;;4.05;50.31
42887;BME280;29032;56.028;92.904;2023-04-30T21:12:13;98695.03;;;3.64;52.05
42887;BME280;29032;56.028;92.904;2023-04-30T21:17:33;98694.41;;;3.92;50.38
42887;BME280;29032;56.028;92.904;2023-04-30T21:22:35;98696.31;;;4.29;50.03
42887;BME280;29032;56.028;92.904;2023-04-30T21:27:39;98697.72;;;4.02;50.30
42887;BME280;29032;56.028;92.904;2023-04-30T21:32:42;98692.69;;;3.89;51.45
42887;BME280;29032;56.028;92.904;2023-04-30T21:43:24;98690.72;;;3.95;50.81
42887;BME280;29032;56.028;92.904;2023-04-30T21:48:26;98701.22;;;4.13;50.91
42887;BME280;29032;56.028;92.904;2023-04-30T21:53:46;98699.88;;;4.57;49.21
42887;BME280;29032;56.028;92.904;2023-04-30T21:59:08;98687.34;;;4.56;48.66
42887;BME280;29032;56.028;92.904;2023-04-30T22:04:29;98690.03;;;4.28;49.26
42887;BME280;29032;56.028;92.904;2023-04-30T22:09:31;98704.56;;;4.40;49.15
42887;BME280;29032;56.028;92.904;2023-04-30T22:14:53;98704.63;;;4.73;47.64
42887;BME280;29032;56.028;92.904;2023-04-30T22:19:55;98703.38;;;4.74;48.08
42887;BME280;29032;56.028;92.904;2023-04-30T22:30:37;98702.66;;;3.92;49.84
42887;BME280;29032;56.028;92.904;2023-04-30T22:35:39;98717.97;;;3.61;50.75
42887;BME280;29032;56.028;92.904;2023-04-30T22:40:41;98721.44;;;3.56;51.11
42887;BME280;29032;56.028;92.904;2023-04-30T22:45:45;98726.00;;;3.71;51.37
42887;BME280;29032;56.028;92.904;2023-04-30T22:50:47;98727.00;;;3.67;51.58
42887;BME280;29032;56.028;92.904;2023-04-30T23:01:29;98741.53;;;3.85;51.18
42887;BME280;29032;56.028;92.904;2023-04-30T23:06:31;98734.06;;;3.43;52.29
42887;BME280;29032;56.028;92.904;2023-04-30T23:22:15;98737.84;;;3.88;51.51
42887;BME280;29032;56.028;92.904;2023-04-30T23:32:38;98740.78;;;4.49;49.77
42887;BME280;29032;56.028;92.904;2023-04-30T23:37:40;98751.59;;;4.64;49.52
42887;BME280;29032;56.028;92.904;2023-04-30T23:48:05;98753.38;;;4.78;48.89
42887;BME280;29032;56.028;92.904;2023-04-30T23:53:25;98759.59;;;4.79;48.25
42887;BME280;29032;56.028;92.904;2023-04-30T23:58:27;98767.31;;;4.69;48.73
